sensor_id;sensor_type;location;lat;lon;timestamp;P1;durP1;ratioP1;P2;durP2;ratioP2
42098;SDS011;27758;55.900;8.516;2022-08-02T00:00:13;15.75;;;3.63;;
42098;SDS011;27758;55.900;8.516;2022-08-02T00:02:40;9.13;;;3.08;;
42098;SDS011;27758;55.900;8.516;2022-08-02T00:05:07;15.45;;;3.15;;
42098;SDS011;27758;55.900;8.516;2022-08-02T00:07:33;7.15;;;2.60;;
42098;SDS011;27758;55.900;8.516;2022-08-02T00:09:59;8.50;;;3.20;;
42098;SDS011;27758;55.900;8.516;2022-08-02T00:12:25;8.32;;;3.25;;
42098;SDS011;27758;55.900;8.516;2022-08-02T00:14:51;9.95;;;3.30;;
42098;SDS011;27758;55.900;8.516;2022-08-02T00:17:17;11.50;;;2.97;;
42098;SDS011;27758;55.900;8.516;2022-08-02T00:19:43;14.52;;;3.65;;
42098;SDS011;27758;55.900;8.516;2022-08-02T00:22:09;10.50;;;3.67;;
42098;SDS011;27758;55.900;8.516;2022-08-02T00:24:35;12.05;;;3.45;;
42098;SDS011;27758;55.900;8.516;2022-08-02T00:27:01;9.10;;;2.47;;
42098;SDS011;27758;55.900;8.516;2022-08-02T00:29:30;12.60;;;3.45;;
42098;SDS011;27758;55.900;8.516;2022-08-02T00:31:56;9.85;;;2.80;;
42098;SDS011;27758;55.900;8.516;2022-08-02T00:34:22;13.45;;;3.25;;
42098;SDS011;27758;55.900;8.516;2022-08-02T00:36:49;6.13;;;2.70;;
42098;SDS011;27758;55.900;8.516;2022-08-02T00:39:15;9.65;;;3.45;;
42098;SDS011;27758;55.900;8.516;2022-08-02T00:41:48;6.85;;;2.60;;
42098;SDS011;27758;55.900;8.516;2022-08-02T00:44:17;10.75;;;3.08;;
42098;SDS011;27758;55.900;8.516;2022-08-02T00:46:44;8.43;;;3.10;;
42098;SDS011;27758;55.900;8.516;2022-08-02T00:49:11;16.83;;;3.33;;
42098;SDS011;27758;55.900;8.516;2022-08-02T00:51:38;9.05;;;3.10;;
42098;SDS011;27758;55.900;8.516;2022-08-02T00:54:04;11.00;;;3.80;;
42098;SDS011;27758;55.900;8.516;2022-08-02T00:56:31;6.70;;;2.88;;
42098;SDS011;27758;55.900;8.516;2022-08-02T00:58:57;8.90;;;2.75;;
42098;SDS011;27758;55.900;8.516;2022-08-02T01:01:23;13.13;;;3.17;;
42098;SDS011;27758;55.900;8.516;2022-08-02T01:04:10;12.50;;;3.75;;
42098;SDS011;27758;55.900;8.516;2022-08-02T01:06:37;13.65;;;3.15;;
42098;SDS011;27758;55.900;8.516;2022-08-02T01:09:05;10.10;;;3.40;;
42098;SDS011;27758;55.900;8.516;2022-08-02T01:11:31;12.88;;;3.63;;
42098;SDS011;27758;55.900;8.516;2022-08-02T01:14:03;7.43;;;3.25;;
42098;SDS011;27758;55.900;8.516;2022-08-02T01:16:34;7.53;;;3.47;;
42098;SDS011;27758;55.900;8.516;2022-08-02T01:19:30;7.97;;;3.03;;
42098;SDS011;27758;55.900;8.516;2022-08-02T01:30:15;11.73;;;2.53;;
42098;SDS011;27758;55.900;8.516;2022-08-02T01:32:44;14.23;;;3.90;;
42098;SDS011;27758;55.900;8.516;2022-08-02T01:35:16;7.30;;;3.00;;
42098;SDS011;27758;55.900;8.516;2022-08-02T01:37:57;10.38;;;3.08;;
42098;SDS011;27758;55.900;8.516;2022-08-02T01:40:38;12.73;;;2.92;;
42098;SDS011;27758;55.900;8.516;2022-08-02T01:43:08;6.13;;;2.75;;
42098;SDS011;27758;55.900;8.516;2022-08-02T01:45:36;7.97;;;3.15;;
42098;SDS011;27758;55.900;8.516;2022-08-02T01:48:05;10.93;;;3.65;;
42098;SDS011;27758;55.900;8.516;2022-08-02T01:50:33;11.10;;;3.33;;
42098;SDS011;27758;55.900;8.516;2022-08-02T01:53:03;9.48;;;2.83;;
42098;SDS011;27758;55.900;8.516;2022-08-02T01:55:33;16.10;;;3.70;;
42098;SDS011;27758;55.900;8.516;2022-08-02T01:58:03;9.55;;;3.78;;
42098;SDS011;27758;55.900;8.516;2022-08-02T02:00:32;14.00;;;3.35;;
42098;SDS011;27758;55.900;8.516;2022-08-02T02:03:01;12.93;;;3.65;;
42098;SDS011;27758;55.900;8.516;2022-08-02T02:05:30;9.75;;;3.15;;
42098;SDS011;27758;55.900;8.516;2022-08-02T02:07:57;9.77;;;3.13;;
42098;SDS011;27758;55.900;8.516;2022-08-02T02:10:25;13.27;;;3.08;;
42098;SDS011;27758;55.900;8.516;2022-08-02T02:12:54;9.25;;;3.40;;
42098;SDS011;27758;55.900;8.516;2022-08-02T02:15:22;10.40;;;3.47;;
42098;SDS011;27758;55.900;8.516;2022-08-02T02:17:50;13.23;;;3.35;;
42098;SDS011;27758;55.900;8.516;2022-08-02T02:20:18;11.65;;;3.42;;
42098;SDS011;27758;55.900;8.516;2022-08-02T02:22:45;12.32;;;3.25;;
42098;SDS011;27758;55.900;8.516;2022-08-02T02:25:13;7.60;;;3.65;;
42098;SDS011;27758;55.900;8.516;2022-08-02T02:27:51;12.85;;;3.42;;
42098;SDS011;27758;55.900;8.516;2022-08-02T02:30:22;8.88;;;3.13;;
42098;SDS011;27758;55.900;8.516;2022-08-02T02:35:19;8.68;;;2.85;;
42098;SDS011;27758;55.900;8.516;2022-08-02T02:37:47;14.18;;;3.53;;
42098;SDS011;27758;55.900;8.516;2022-08-02T02:40:15;12.98;;;3.22;;
42098;SDS011;27758;55.900;8.516;2022-08-02T02:42:42;7.93;;;3.38;;
42098;SDS011;27758;55.900;8.516;2022-08-02T02:45:09;15.23;;;3.67;;
42098;SDS011;27758;55.900;8.516;2022-08-02T02:47:36;12.38;;;3.78;;
42098;SDS011;27758;55.900;8.516;2022-08-02T02:50:04;12.52;;;3.60;;
42098;SDS011;27758;55.900;8.516;2022-08-02T02:52:31;9.80;;;3.25;;
42098;SDS011;27758;55.900;8.516;2022-08-02T02:54:57;11.00;;;3.35;;
42098;SDS011;27758;55.900;8.516;2022-08-02T02:57:24;8.68;;;3.50;;
42098;SDS011;27758;55.900;8.516;2022-08-02T02:59:50;11.50;;;3.67;;
42098;SDS011;27758;55.900;8.516;2022-08-02T03:02:17;11.38;;;2.83;;
42098;SDS011;27758;55.900;8.516;2022-08-02T03:04:44;15.35;;;4.55;;
42098;SDS011;27758;55.900;8.516;2022-08-02T03:07:11;15.85;;;3.90;;
42098;SDS011;27758;55.900;8.516;2022-08-02T03:09:36;8.30;;;3.75;;
42098;SDS011;27758;55.900;8.516;2022-08-02T03:12:02;10.18;;;3.50;;
42098;SDS011;27758;55.900;8.516;2022-08-02T03:14:29;7.88;;;3.25;;
42098;SDS011;27758;55.900;8.516;2022-08-02T03:16:55;8.95;;;3.63;;
42098;SDS011;27758;55.900;8.516;2022-08-02T03:19:21;10.75;;;3.60;;
42098;SDS011;27758;55.900;8.516;2022-08-02T03:21:48;11.77;;;3.78;;
42098;SDS011;27758;55.900;8.516;2022-08-02T03:24:15;9.63;;;3.30;;
42098;SDS011;27758;55.900;8.516;2022-08-02T03:26:41;8.13;;;3.65;;
42098;SDS011;27758;55.900;8.516;2022-08-02T03:29:07;9.02;;;3.00;;
42098;SDS011;27758;55.900;8.516;2022-08-02T03:31:33;7.18;;;3.53;;
42098;SDS011;27758;55.900;8.516;2022-08-02T03:34:00;11.68;;;3.65;;
42098;SDS011;27758;55.900;8.516;2022-08-02T03:36:28;8.38;;;2.55;;
42098;SDS011;27758;55.900;8.516;2022-08-02T03:41:24;8.90;;;3.15;;
42098;SDS011;27758;55.900;8.516;2022-08-02T03:43:51;8.88;;;3.47;;
42098;SDS011;27758;55.900;8.516;2022-08-02T03:46:19;9.85;;;3.30;;
42098;SDS011;27758;55.900;8.516;2022-08-02T03:48:48;9.95;;;3.42;;
42098;SDS011;27758;55.900;8.516;2022-08-02T03:51:15;9.13;;;3.92;;
42098;SDS011;27758;55.900;8.516;2022-08-02T03:53:42;10.23;;;3.75;;
42098;SDS011;27758;55.900;8.516;2022-08-02T03:56:08;14.00;;;3.55;;
42098;SDS011;27758;55.900;8.516;2022-08-02T03:58:34;7.72;;;3.83;;
42098;SDS011;27758;55.900;8.516;2022-08-02T04:01:00;11.18;;;3.28;;
42098;SDS011;27758;55.900;8.516;2022-08-02T04:03:26;9.70;;;3.92;;
42098;SDS011;27758;55.900;8.516;2022-08-02T04:05:53;12.15;;;4.00;;
42098;SDS011;27758;55.900;8.516;2022-08-02T04:08:19;13.10;;;4.45;;
42098;SDS011;27758;55.900;8.516;2022-08-02T04:10:45;11.73;;;3.97;;
42098;SDS011;27758;55.900;8.516;2022-08-02T04:13:31;10.38;;;4.32;;
42098;SDS011;27758;55.900;8.516;2022-08-02T04:16:02;14.02;;;4.07;;
42098;SDS011;27758;55.900;8.516;2022-08-02T04:18:38;8.40;;;4.45;;
42098;SDS011;27758;55.900;8.516;2022-08-02T04:21:18;8.82;;;3.88;;
42098;SDS011;27758;55.900;8.516;2022-08-02T04:23:46;9.45;;;4.13;;
42098;SDS011;27758;55.900;8.516;2022-08-02T04:26:13;13.77;;;4.25;;
42098;SDS011;27758;55.900;8.516;2022-08-02T04:28:40;15.43;;;4.28;;
42098;SDS011;27758;55.900;8.516;2022-08-02T04:31:07;17.13;;;4.85;;
42098;SDS011;27758;55.900;8.516;2022-08-02T04:33:36;11.88;;;4.95;;
42098;SDS011;27758;55.900;8.516;2022-08-02T04:36:04;11.68;;;4.60;;
42098;SDS011;27758;55.900;8.516;2022-08-02T04:38:30;8.80;;;4.10;;
42098;SDS011;27758;55.900;8.516;2022-08-02T04:40:56;11.18;;;4.15;;
42098;SDS011;27758;55.900;8.516;2022-08-02T04:43:22;7.90;;;4.65;;
42098;SDS011;27758;55.900;8.516;2022-08-02T04:45:50;13.65;;;4.85;;
42098;SDS011;27758;55.900;8.516;2022-08-02T04:48:17;10.85;;;4.72;;
42098;SDS011;27758;55.900;8.516;2022-08-02T04:50:44;13.02;;;4.18;;
42098;SDS011;27758;55.900;8.516;2022-08-02T04:53:10;15.00;;;4.63;;
42098;SDS011;27758;55.900;8.516;2022-08-02T04:55:36;11.95;;;4.43;;
42098;SDS011;27758;55.900;8.516;2022-08-02T04:58:02;13.73;;;5.25;;
42098;SDS011;27758;55.900;8.516;2022-08-02T05:00:29;12.45;;;5.00;;
42098;SDS011;27758;55.900;8.516;2022-08-02T05:02:55;9.25;;;5.15;;
42098;SDS011;27758;55.900;8.516;2022-08-02T05:05:21;12.55;;;5.45;;
42098;SDS011;27758;55.900;8.516;2022-08-02T05:07:47;11.85;;;4.90;;
42098;SDS011;27758;55.900;8.516;2022-08-02T05:10:13;14.93;;;5.20;;
42098;SDS011;27758;55.900;8.516;2022-08-02T05:12:39;10.23;;;4.63;;
42098;SDS011;27758;55.900;8.516;2022-08-02T05:15:06;11.48;;;4.65;;
42098;SDS011;27758;55.900;8.516;2022-08-02T05:17:33;10.68;;;4.80;;
42098;SDS011;27758;55.900;8.516;2022-08-02T05:20:00;12.90;;;5.38;;
42098;SDS011;27758;55.900;8.516;2022-08-02T05:22:26;11.77;;;5.22;;
42098;SDS011;27758;55.900;8.516;2022-08-02T05:24:52;18.02;;;5.40;;
42098;SDS011;27758;55.900;8.516;2022-08-02T05:27:18;20.00;;;5.40;;
42098;SDS011;27758;55.900;8.516;2022-08-02T05:29:44;14.77;;;5.15;;
42098;SDS011;27758;55.900;8.516;2022-08-02T05:32:10;15.88;;;5.07;;
42098;SDS011;27758;55.900;8.516;2022-08-02T05:34:35;15.80;;;5.30;;
42098;SDS011;27758;55.900;8.516;2022-08-02T05:37:01;10.57;;;5.18;;
42098;SDS011;27758;55.900;8.516;2022-08-02T05:39:27;18.73;;;5.13;;
42098;SDS011;27758;55.900;8.516;2022-08-02T05:41:53;12.80;;;5.47;;
42098;SDS011;27758;55.900;8.516;2022-08-02T05:44:19;12.60;;;4.93;;
42098;SDS011;27758;55.900;8.516;2022-08-02T05:46:45;13.55;;;4.63;;
42098;SDS011;27758;55.900;8.516;2022-08-02T05:49:11;16.48;;;5.55;;
42098;SDS011;27758;55.900;8.516;2022-08-02T05:51:37;13.55;;;4.40;;
42098;SDS011;27758;55.900;8.516;2022-08-02T05:56:45;10.25;;;3.65;;
42098;SDS011;27758;55.900;8.516;2022-08-02T06:01:57;8.70;;;3.72;;
42098;SDS011;27758;55.900;8.516;2022-08-02T06:04:35;10.75;;;3.10;;
42098;SDS011;27758;55.900;8.516;2022-08-02T06:07:12;9.50;;;3.10;;
42098;SDS011;27758;55.900;8.516;2022-08-02T06:09:40;17.83;;;3.50;;
42098;SDS011;27758;55.900;8.516;2022-08-02T06:12:07;13.52;;;3.38;;
42098;SDS011;27758;55.900;8.516;2022-08-02T06:14:37;8.60;;;3.20;;
42098;SDS011;27758;55.900;8.516;2022-08-02T06:17:05;8.55;;;3.45;;
42098;SDS011;27758;55.900;8.516;2022-08-02T06:19:32;10.15;;;3.22;;
42098;SDS011;27758;55.900;8.516;2022-08-02T06:22:00;6.25;;;2.80;;
42098;SDS011;27758;55.900;8.516;2022-08-02T06:24:41;16.63;;;2.60;;
42098;SDS011;27758;55.900;8.516;2022-08-02T06:27:12;10.48;;;2.78;;
42098;SDS011;27758;55.900;8.516;2022-08-02T06:29:39;4.85;;;2.28;;
42098;SDS011;27758;55.900;8.516;2022-08-02T06:32:07;16.02;;;2.95;;
42098;SDS011;27758;55.900;8.516;2022-08-02T06:34:38;11.98;;;3.05;;
42098;SDS011;27758;55.900;8.516;2022-08-02T06:39:46;7.78;;;2.20;;
42098;SDS011;27758;55.900;8.516;2022-08-02T06:42:15;9.85;;;2.70;;
42098;SDS011;27758;55.900;8.516;2022-08-02T06:44:46;8.43;;;2.58;;
42098;SDS011;27758;55.900;8.516;2022-08-02T06:47:12;9.70;;;2.55;;
42098;SDS011;27758;55.900;8.516;2022-08-02T06:49:39;13.32;;;2.50;;
42098;SDS011;27758;55.900;8.516;2022-08-02T06:52:05;14.13;;;2.88;;
42098;SDS011;27758;55.900;8.516;2022-08-02T06:54:31;6.90;;;2.47;;
42098;SDS011;27758;55.900;8.516;2022-08-02T06:56:58;8.52;;;2.70;;
42098;SDS011;27758;55.900;8.516;2022-08-02T06:59:24;11.82;;;3.08;;
42098;SDS011;27758;55.900;8.516;2022-08-02T07:01:50;11.85;;;2.72;;
42098;SDS011;27758;55.900;8.516;2022-08-02T07:04:16;9.52;;;2.53;;
42098;SDS011;27758;55.900;8.516;2022-08-02T07:06:42;9.02;;;2.17;;
42098;SDS011;27758;55.900;8.516;2022-08-02T07:09:08;6.55;;;2.13;;
42098;SDS011;27758;55.900;8.516;2022-08-02T07:11:34;7.97;;;1.90;;
42098;SDS011;27758;55.900;8.516;2022-08-02T07:13:59;7.78;;;1.80;;
42098;SDS011;27758;55.900;8.516;2022-08-02T07:16:25;7.40;;;2.00;;
42098;SDS011;27758;55.900;8.516;2022-08-02T07:18:51;11.75;;;2.00;;
42098;SDS011;27758;55.900;8.516;2022-08-02T07:21:17;9.77;;;1.85;;
42098;SDS011;27758;55.900;8.516;2022-08-02T07:23:43;8.27;;;2.13;;
42098;SDS011;27758;55.900;8.516;2022-08-02T07:26:09;11.65;;;1.77;;
42098;SDS011;27758;55.900;8.516;2022-08-02T07:28:34;7.68;;;1.20;;
42098;SDS011;27758;55.900;8.516;2022-08-02T07:31:00;11.32;;;1.65;;
42098;SDS011;27758;55.900;8.516;2022-08-02T07:33:26;10.13;;;2.05;;
42098;SDS011;27758;55.900;8.516;2022-08-02T07:35:53;8.15;;;2.67;;
42098;SDS011;27758;55.900;8.516;2022-08-02T07:38:21;9.07;;;1.63;;
42098;SDS011;27758;55.900;8.516;2022-08-02T07:40:49;7.65;;;1.70;;
42098;SDS011;27758;55.900;8.516;2022-08-02T07:43:15;4.53;;;1.52;;
42098;SDS011;27758;55.900;8.516;2022-08-02T07:45:41;8.23;;;1.90;;
42098;SDS011;27758;55.900;8.516;2022-08-02T07:48:07;7.05;;;1.73;;
42098;SDS011;27758;55.900;8.516;2022-08-02T07:50:33;11.73;;;1.90;;
42098;SDS011;27758;55.900;8.516;2022-08-02T07:52:59;10.57;;;2.25;;
42098;SDS011;27758;55.900;8.516;2022-08-02T07:55:25;4.40;;;1.38;;
42098;SDS011;27758;55.900;8.516;2022-08-02T07:57:51;4.55;;;1.58;;
42098;SDS011;27758;55.900;8.516;2022-08-02T08:00:17;9.05;;;1.90;;
42098;SDS011;27758;55.900;8.516;2022-08-02T08:02:43;6.63;;;1.60;;
42098;SDS011;27758;55.900;8.516;2022-08-02T08:05:10;10.38;;;1.92;;
42098;SDS011;27758;55.900;8.516;2022-08-02T08:07:36;11.20;;;1.70;;
42098;SDS011;27758;55.900;8.516;2022-08-02T08:10:03;6.60;;;1.42;;
42098;SDS011;27758;55.900;8.516;2022-08-02T08:12:30;23.85;;;1.90;;
42098;SDS011;27758;55.900;8.516;2022-08-02T08:14:56;5.80;;;1.52;;
42098;SDS011;27758;55.900;8.516;2022-08-02T08:17:21;5.50;;;1.30;;
42098;SDS011;27758;55.900;8.516;2022-08-02T08:19:47;5.72;;;1.27;;
42098;SDS011;27758;55.900;8.516;2022-08-02T08:22:13;6.72;;;1.45;;
42098;SDS011;27758;55.900;8.516;2022-08-02T08:24:39;6.45;;;1.90;;
42098;SDS011;27758;55.900;8.516;2022-08-02T08:27:05;6.85;;;1.75;;
42098;SDS011;27758;55.900;8.516;2022-08-02T08:29:35;5.63;;;1.55;;
42098;SDS011;27758;55.900;8.516;2022-08-02T08:32:00;8.73;;;1.95;;
42098;SDS011;27758;55.900;8.516;2022-08-02T08:34:26;6.22;;;1.42;;
42098;SDS011;27758;55.900;8.516;2022-08-02T08:36:55;8.73;;;1.47;;
42098;SDS011;27758;55.900;8.516;2022-08-02T08:39:21;6.38;;;1.70;;
42098;SDS011;27758;55.900;8.516;2022-08-02T08:41:47;6.18;;;1.30;;
42098;SDS011;27758;55.900;8.516;2022-08-02T08:44:13;5.82;;;1.65;;
42098;SDS011;27758;55.900;8.516;2022-08-02T08:46:39;8.02;;;2.05;;
42098;SDS011;27758;55.900;8.516;2022-08-02T08:49:08;4.55;;;1.27;;
42098;SDS011;27758;55.900;8.516;2022-08-02T08:51:43;8.60;;;1.90;;
42098;SDS011;27758;55.900;8.516;2022-08-02T08:54:12;6.57;;;1.58;;
42098;SDS011;27758;55.900;8.516;2022-08-02T08:56:41;9.57;;;1.83;;
42098;SDS011;27758;55.900;8.516;2022-08-02T08:59:07;6.15;;;1.40;;
42098;SDS011;27758;55.900;8.516;2022-08-02T09:01:34;5.53;;;1.30;;
42098;SDS011;27758;55.900;8.516;2022-08-02T09:04:00;9.52;;;1.33;;
42098;SDS011;27758;55.900;8.516;2022-08-02T09:06:26;7.32;;;1.60;;
42098;SDS011;27758;55.900;8.516;2022-08-02T09:08:52;12.45;;;2.50;;
42098;SDS011;27758;55.900;8.516;2022-08-02T09:11:21;10.10;;;2.20;;
42098;SDS011;27758;55.900;8.516;2022-08-02T09:13:50;13.98;;;2.55;;
42098;SDS011;27758;55.900;8.516;2022-08-02T09:16:39;7.68;;;1.73;;
42098;SDS011;27758;55.900;8.516;2022-08-02T09:19:20;8.20;;;1.60;;
42098;SDS011;27758;55.900;8.516;2022-08-02T09:21:48;8.00;;;1.75;;
42098;SDS011;27758;55.900;8.516;2022-08-02T09:24:21;11.00;;;2.10;;
42098;SDS011;27758;55.900;8.516;2022-08-02T09:26:48;8.32;;;2.15;;
42098;SDS011;27758;55.900;8.516;2022-08-02T09:29:16;7.35;;;2.20;;
42098;SDS011;27758;55.900;8.516;2022-08-02T09:31:45;9.40;;;2.13;;
42098;SDS011;27758;55.900;8.516;2022-08-02T09:34:11;6.07;;;1.85;;
42098;SDS011;27758;55.900;8.516;2022-08-02T09:36:43;13.88;;;2.72;;
42098;SDS011;27758;55.900;8.516;2022-08-02T09:39:12;8.38;;;2.47;;
42098;SDS011;27758;55.900;8.516;2022-08-02T09:41:42;14.45;;;2.22;;
42098;SDS011;27758;55.900;8.516;2022-08-02T09:44:12;7.28;;;2.08;;
42098;SDS011;27758;55.900;8.516;2022-08-02T09:46:41;13.15;;;2.33;;
42098;SDS011;27758;55.900;8.516;2022-08-02T09:49:17;10.85;;;2.03;;
42098;SDS011;27758;55.900;8.516;2022-08-02T09:54:15;13.90;;;2.60;;
42098;SDS011;27758;55.900;8.516;2022-08-02T09:56:44;7.95;;;2.10;;
42098;SDS011;27758;55.900;8.516;2022-08-02T09:59:14;9.73;;;2.40;;
42098;SDS011;27758;55.900;8.516;2022-08-02T10:01:42;13.80;;;2.25;;
42098;SDS011;27758;55.900;8.516;2022-08-02T10:04:10;11.18;;;1.98;;
42098;SDS011;27758;55.900;8.516;2022-08-02T10:06:38;11.77;;;2.20;;
42098;SDS011;27758;55.900;8.516;2022-08-02T10:09:06;12.98;;;3.05;;
42098;SDS011;27758;55.900;8.516;2022-08-02T10:11:33;12.82;;;2.22;;
42098;SDS011;27758;55.900;8.516;2022-08-02T10:14:03;7.88;;;2.28;;
42098;SDS011;27758;55.900;8.516;2022-08-02T10:16:34;11.48;;;2.50;;
42098;SDS011;27758;55.900;8.516;2022-08-02T10:19:02;12.02;;;2.80;;
42098;SDS011;27758;55.900;8.516;2022-08-02T10:21:31;12.48;;;2.78;;
42098;SDS011;27758;55.900;8.516;2022-08-02T10:24:11;8.90;;;2.38;;
42098;SDS011;27758;55.900;8.516;2022-08-02T10:26:43;16.33;;;2.38;;
42098;SDS011;27758;55.900;8.516;2022-08-02T10:29:14;8.27;;;1.88;;
42098;SDS011;27758;55.900;8.516;2022-08-02T10:31:49;6.25;;;2.03;;
42098;SDS011;27758;55.900;8.516;2022-08-02T10:34:20;19.17;;;2.92;;
42098;SDS011;27758;55.900;8.516;2022-08-02T10:36:51;10.32;;;2.28;;
42098;SDS011;27758;55.900;8.516;2022-08-02T10:39:18;11.00;;;2.60;;
42098;SDS011;27758;55.900;8.516;2022-08-02T10:41:48;6.75;;;1.92;;
42098;SDS011;27758;55.900;8.516;2022-08-02T10:44:19;11.00;;;2.05;;
42098;SDS011;27758;55.900;8.516;2022-08-02T10:46:50;9.18;;;2.22;;
42098;SDS011;27758;55.900;8.516;2022-08-02T10:49:18;7.25;;;2.28;;
42098;SDS011;27758;55.900;8.516;2022-08-02T10:54:28;5.13;;;1.65;;
42098;SDS011;27758;55.900;8.516;2022-08-02T10:57:00;14.85;;;2.38;;
42098;SDS011;27758;55.900;8.516;2022-08-02T10:59:34;10.23;;;2.17;;
42098;SDS011;27758;55.900;8.516;2022-08-02T11:02:01;9.95;;;2.70;;
42098;SDS011;27758;55.900;8.516;2022-08-02T11:07:19;5.82;;;1.95;;
42098;SDS011;27758;55.900;8.516;2022-08-02T11:09:56;9.70;;;2.13;;
42098;SDS011;27758;55.900;8.516;2022-08-02T11:12:24;10.15;;;2.63;;
42098;SDS011;27758;55.900;8.516;2022-08-02T11:14:58;12.02;;;2.63;;
42098;SDS011;27758;55.900;8.516;2022-08-02T11:17:38;10.93;;;2.53;;
42098;SDS011;27758;55.900;8.516;2022-08-02T11:20:21;6.60;;;2.35;;
42098;SDS011;27758;55.900;8.516;2022-08-02T11:22:49;8.32;;;2.40;;
42098;SDS011;27758;55.900;8.516;2022-08-02T11:27:49;10.57;;;3.25;;
42098;SDS011;27758;55.900;8.516;2022-08-02T11:30:33;12.55;;;2.70;;
42098;SDS011;27758;55.900;8.516;2022-08-02T11:32:59;12.18;;;3.08;;
42098;SDS011;27758;55.900;8.516;2022-08-02T11:38:10;9.85;;;2.92;;
42098;SDS011;27758;55.900;8.516;2022-08-02T11:40:43;11.25;;;2.65;;
42098;SDS011;27758;55.900;8.516;2022-08-02T11:43:14;12.15;;;2.85;;
42098;SDS011;27758;55.900;8.516;2022-08-02T11:45:41;9.27;;;2.78;;
42098;SDS011;27758;55.900;8.516;2022-08-02T11:48:07;10.52;;;2.85;;
42098;SDS011;27758;55.900;8.516;2022-08-02T11:50:33;4.38;;;2.17;;
42098;SDS011;27758;55.900;8.516;2022-08-02T11:52:59;11.68;;;3.15;;
42098;SDS011;27758;55.900;8.516;2022-08-02T11:55:28;12.90;;;2.80;;
42098;SDS011;27758;55.900;8.516;2022-08-02T11:57:59;13.85;;;3.10;;
42098;SDS011;27758;55.900;8.516;2022-08-02T12:00:26;6.85;;;2.33;;
42098;SDS011;27758;55.900;8.516;2022-08-02T12:02:52;9.98;;;3.22;;
42098;SDS011;27758;55.900;8.516;2022-08-02T12:05:19;7.93;;;2.78;;
42098;SDS011;27758;55.900;8.516;2022-08-02T12:07:49;8.50;;;2.92;;
42098;SDS011;27758;55.900;8.516;2022-08-02T12:10:19;11.02;;;2.83;;
42098;SDS011;27758;55.900;8.516;2022-08-02T12:18:07;8.07;;;3.20;;
42098;SDS011;27758;55.900;8.516;2022-08-02T12:21:00;12.13;;;3.72;;
42098;SDS011;27758;55.900;8.516;2022-08-02T12:23:26;13.35;;;3.60;;
42098;SDS011;27758;55.900;8.516;2022-08-02T12:26:00;12.10;;;3.20;;
42098;SDS011;27758;55.900;8.516;2022-08-02T12:28:27;12.38;;;3.30;;
42098;SDS011;27758;55.900;8.516;2022-08-02T12:30:58;15.55;;;3.58;;
42098;SDS011;27758;55.900;8.516;2022-08-02T12:33:25;11.82;;;3.58;;
42098;SDS011;27758;55.900;8.516;2022-08-02T12:35:53;14.40;;;3.45;;
42098;SDS011;27758;55.900;8.516;2022-08-02T12:38:19;8.93;;;3.05;;
42098;SDS011;27758;55.900;8.516;2022-08-02T12:40:46;13.45;;;3.65;;
42098;SDS011;27758;55.900;8.516;2022-08-02T12:43:16;15.48;;;4.20;;
42098;SDS011;27758;55.900;8.516;2022-08-02T12:48:36;11.75;;;3.88;;
42098;SDS011;27758;55.900;8.516;2022-08-02T12:51:19;15.07;;;4.45;;
42098;SDS011;27758;55.900;8.516;2022-08-02T12:53:45;13.38;;;3.45;;
42098;SDS011;27758;55.900;8.516;2022-08-02T12:56:12;10.30;;;4.65;;
42098;SDS011;27758;55.900;8.516;2022-08-02T12:58:50;13.50;;;3.90;;
42098;SDS011;27758;55.900;8.516;2022-08-02T13:01:24;16.27;;;4.68;;
42098;SDS011;27758;55.900;8.516;2022-08-02T13:03:51;19.83;;;5.00;;
42098;SDS011;27758;55.900;8.516;2022-08-02T13:06:18;14.68;;;5.13;;
42098;SDS011;27758;55.900;8.516;2022-08-02T13:08:45;13.35;;;4.68;;
42098;SDS011;27758;55.900;8.516;2022-08-02T13:11:12;13.55;;;4.68;;
42098;SDS011;27758;55.900;8.516;2022-08-02T13:13:38;10.77;;;5.00;;
42098;SDS011;27758;55.900;8.516;2022-08-02T13:16:04;17.52;;;5.32;;
42098;SDS011;27758;55.900;8.516;2022-08-02T13:18:30;13.82;;;4.60;;
42098;SDS011;27758;55.900;8.516;2022-08-02T13:20:56;12.38;;;4.85;;
42098;SDS011;27758;55.900;8.516;2022-08-02T13:23:22;11.73;;;4.90;;
42098;SDS011;27758;55.900;8.516;2022-08-02T13:25:49;17.98;;;5.15;;
42098;SDS011;27758;55.900;8.516;2022-08-02T13:28:17;11.30;;;4.87;;
42098;SDS011;27758;55.900;8.516;2022-08-02T13:30:43;14.48;;;4.90;;
42098;SDS011;27758;55.900;8.516;2022-08-02T13:33:11;15.18;;;4.78;;
42098;SDS011;27758;55.900;8.516;2022-08-02T13:35:37;12.70;;;5.03;;
42098;SDS011;27758;55.900;8.516;2022-08-02T13:38:03;11.35;;;5.20;;
42098;SDS011;27758;55.900;8.516;2022-08-02T13:40:31;17.60;;;6.05;;
42098;SDS011;27758;55.900;8.516;2022-08-02T13:42:57;16.17;;;5.18;;
42098;SDS011;27758;55.900;8.516;2022-08-02T13:45:23;15.60;;;5.32;;
42098;SDS011;27758;55.900;8.516;2022-08-02T13:47:49;16.83;;;6.47;;
42098;SDS011;27758;55.900;8.516;2022-08-02T13:50:15;17.73;;;6.22;;
42098;SDS011;27758;55.900;8.516;2022-08-02T13:52:41;11.15;;;5.70;;
42098;SDS011;27758;55.900;8.516;2022-08-02T13:55:07;15.20;;;6.03;;
42098;SDS011;27758;55.900;8.516;2022-08-02T13:57:33;15.50;;;6.18;;
42098;SDS011;27758;55.900;8.516;2022-08-02T13:59:59;20.60;;;6.53;;
42098;SDS011;27758;55.900;8.516;2022-08-02T14:02:28;17.25;;;6.22;;
42098;SDS011;27758;55.900;8.516;2022-08-02T14:04:54;13.30;;;6.10;;
42098;SDS011;27758;55.900;8.516;2022-08-02T14:07:20;17.98;;;7.38;;
42098;SDS011;27758;55.900;8.516;2022-08-02T14:09:46;19.25;;;7.90;;
42098;SDS011;27758;55.900;8.516;2022-08-02T14:12:12;16.40;;;6.50;;
42098;SDS011;27758;55.900;8.516;2022-08-02T14:14:38;16.90;;;7.07;;
42098;SDS011;27758;55.900;8.516;2022-08-02T14:17:04;17.20;;;6.85;;
42098;SDS011;27758;55.900;8.516;2022-08-02T14:19:30;15.90;;;7.80;;
42098;SDS011;27758;55.900;8.516;2022-08-02T14:21:57;18.63;;;6.95;;
42098;SDS011;27758;55.900;8.516;2022-08-02T14:24:23;16.30;;;7.18;;
42098;SDS011;27758;55.900;8.516;2022-08-02T14:26:49;18.45;;;7.35;;
42098;SDS011;27758;55.900;8.516;2022-08-02T14:29:15;18.98;;;8.27;;
42098;SDS011;27758;55.900;8.516;2022-08-02T14:31:41;15.07;;;7.57;;
42098;SDS011;27758;55.900;8.516;2022-08-02T14:34:07;17.42;;;8.25;;
42098;SDS011;27758;55.900;8.516;2022-08-02T14:36:35;18.95;;;8.82;;
42098;SDS011;27758;55.900;8.516;2022-08-02T14:39:02;24.58;;;8.95;;
42098;SDS011;27758;55.900;8.516;2022-08-02T14:41:28;27.17;;;9.48;;
42098;SDS011;27758;55.900;8.516;2022-08-02T14:43:57;19.38;;;8.77;;
42098;SDS011;27758;55.900;8.516;2022-08-02T14:46:30;16.15;;;8.00;;
42098;SDS011;27758;55.900;8.516;2022-08-02T14:48:57;25.85;;;9.63;;
42098;SDS011;27758;55.900;8.516;2022-08-02T14:51:27;23.60;;;8.35;;
42098;SDS011;27758;55.900;8.516;2022-08-02T14:53:54;24.13;;;8.95;;
42098;SDS011;27758;55.900;8.516;2022-08-02T14:56:20;22.33;;;10.05;;
42098;SDS011;27758;55.900;8.516;2022-08-02T14:58:46;25.70;;;9.73;;
42098;SDS011;27758;55.900;8.516;2022-08-02T15:01:12;25.15;;;9.73;;
42098;SDS011;27758;55.900;8.516;2022-08-02T15:03:38;25.55;;;9.75;;
42098;SDS011;27758;55.900;8.516;2022-08-02T15:06:03;21.52;;;10.10;;
42098;SDS011;27758;55.900;8.516;2022-08-02T15:08:29;22.40;;;9.90;;
42098;SDS011;27758;55.900;8.516;2022-08-02T15:10:55;25.52;;;10.68;;
42098;SDS011;27758;55.900;8.516;2022-08-02T15:13:21;28.52;;;10.43;;
42098;SDS011;27758;55.900;8.516;2022-08-02T15:15:47;21.63;;;9.90;;
42098;SDS011;27758;55.900;8.516;2022-08-02T15:18:13;28.70;;;10.50;;
42098;SDS011;27758;55.900;8.516;2022-08-02T15:20:39;20.33;;;9.13;;
42098;SDS011;27758;55.900;8.516;2022-08-02T15:23:05;27.73;;;9.70;;
42098;SDS011;27758;55.900;8.516;2022-08-02T15:25:31;22.15;;;8.48;;